Time;durP1;ratioP1;P1;durP2;ratioP2;P2;SDS_P1;SDS_P2;PMS_P1;PMS_P2;Temp;Humidity;BMP_temperature;BMP_pressure;BME280_temperature;BME280_humidity;BME280_pressure;Samples;Min_cycle;Max_cycle;Signal;HPM_P1;HPM_P2
2023/07/26 00:01:38;;;;;;;14.30;7.20;;;;;;;24.06;100.00;97896.59;109312;1236;60407;-79
2023/07/26 00:04:07;;;;;;;19.60;7.30;;;;;;;24.01;100.00;97891.77;109034;1236;60461;-78
2023/07/26 00:06:34;;;;;;;16.60;7.80;;;;;;;23.95;100.00;97904.17;109019;1235;70993;-79
2023/07/26 00:09:00;;;;;;;19.50;7.20;;;;;;;23.86;100.00;97901.39;109410;1236;71038;-78
2023/07/26 00:11:28;;;;;;;21.40;8.30;;;;;;;23.80;100.00;97905.52;110148;1234;60500;-79
2023/07/26 00:13:55;;;;;;;15.50;6.90;;;;;;;23.73;100.00;97899.20;110256;1234;60542;-78
2023/07/26 00:16:21;;;;;;;29.80;7.50;;;;;;;23.68;100.00;97905.17;109501;1233;72701;-79
2023/07/26 00:18:48;;;;;;;13.90;6.80;;;;;;;23.64;100.00;97898.77;109501;1234;69939;-79
2023/07/26 00:21:15;;;;;;;12.90;7.00;;;;;;;23.59;100.00;97900.66;109289;1236;72573;-78
2023/07/26 00:23:41;;;;;;;15.70;6.90;;;;;;;23.57;100.00;97891.04;109289;1233;60506;-78
2023/07/26 00:26:08;;;;;;;16.60;6.80;;;;;;;23.52;100.00;97893.95;109033;1236;60518;-78
2023/07/26 00:28:35;;;;;;;13.70;6.20;;;;;;;23.47;100.00;97896.16;108952;1237;74721;-78
2023/07/26 00:31:01;;;;;;;14.90;5.70;;;;;;;23.43;100.00;97892.55;109002;1239;70805;-77
2023/07/26 00:33:28;;;;;;;13.90;6.40;;;;;;;23.38;100.00;97893.25;108970;1236;71470;-78
2023/07/26 00:35:55;;;;;;;13.50;6.10;;;;;;;23.34;100.00;97885.21;109013;1235;60898;-79
2023/07/26 00:38:22;;;;;;;13.70;7.10;;;;;;;23.30;100.00;97885.16;109628;1234;60533;-79
2023/07/26 00:40:51;;;;;;;10.60;6.40;;;;;;;23.26;100.00;97890.89;109347;1234;72279;-79
2023/07/26 00:43:17;;;;;;;11.90;6.00;;;;;;;23.22;100.00;97887.34;109000;1236;71165;-79
2023/07/26 00:45:44;;;;;;;11.80;6.10;;;;;;;23.19;100.00;97888.09;109654;1234;72761;-80
2023/07/26 00:48:11;;;;;;;8.00;5.00;;;;;;;23.15;100.00;97883.52;109631;1236;60544;-79
2023/07/26 00:50:38;;;;;;;8.50;4.90;;;;;;;23.12;100.00;97877.09;109653;1233;60396;-78
2023/07/26 00:53:04;;;;;;;16.20;6.00;;;;;;;23.08;100.00;97882.30;108808;1238;73672;-79
2023/07/26 00:55:32;;;;;;;9.00;5.00;;;;;;;23.05;100.00;97886.07;109083;1234;70894;-79
2023/07/26 00:57:58;;;;;;;18.50;5.30;;;;;;;22.99;100.00;97895.02;108954;1234;72414;-79
2023/07/26 01:00:25;;;;;;;10.40;5.80;;;;;;;22.94;100.00;97898.37;109560;1236;60521;-79
2023/07/26 01:02:52;;;;;;;10.30;5.00;;;;;;;22.89;100.00;97893.68;109332;1236;60440;-78
2023/07/26 01:05:19;;;;;;;11.80;4.70;;;;;;;22.85;100.00;97887.15;110267;1233;72510;-78
2023/07/26 01:07:53;;;;;;;7.80;4.30;;;;;;;22.80;100.00;97891.09;108846;1239;69496;-79
2023/07/26 01:10:24;;;;;;;11.60;5.50;;;;;;;22.74;100.00;97893.35;109120;1237;71455;-79
2023/07/26 01:13:04;;;;;;;9.20;4.90;;;;;;;22.69;100.00;97892.38;109030;1238;60583;-77
2023/07/26 01:15:34;;;;;;;19.50;5.20;;;;;;;22.63;100.00;97893.57;109955;1232;60455;-79
2023/07/26 01:18:12;;;;;;;7.80;4.80;;;;;;;22.56;100.00;97895.85;109435;1234;72376;-79
2023/07/26 01:20:39;;;;;;;8.80;4.50;;;;;;;22.52;100.00;97891.91;109408;1238;70936;-79
2023/07/26 01:23:06;;;;;;;9.30;4.80;;;;;;;22.48;100.00;97894.73;109521;1234;70406;-79
2023/07/26 01:25:33;;;;;;;8.80;4.20;;;;;;;22.43;100.00;97884.44;109002;1236;60373;-77
2023/07/26 01:28:00;;;;;;;9.50;4.90;;;;;;;22.38;100.00;97889.61;109339;1234;60528;-78
2023/07/26 01:30:29;;;;;;;12.00;4.70;;;;;;;22.34;100.00;97896.23;109679;1236;73887;-77
2023/07/26 01:32:59;;;;;;;9.40;4.10;;;;;;;22.30;100.00;97902.02;109956;1236;71178;-78
2023/07/26 01:35:26;;;;;;;17.50;4.50;;;;;;;22.25;100.00;97914.55;109635;1234;72725;-78
2023/07/26 01:37:53;;;;;;;7.50;4.30;;;;;;;22.21;100.00;97923.09;109234;1233;60583;-78
2023/07/26 01:40:21;;;;;;;9.80;4.20;;;;;;;22.16;100.00;97924.36;109118;1238;60354;-78
2023/07/26 01:42:48;;;;;;;8.80;4.00;;;;;;;22.12;100.00;97933.69;108755;1232;72227;-78
2023/07/26 01:45:15;;;;;;;11.40;4.40;;;;;;;22.10;100.00;97942.00;109439;1235;71039;-79
2023/07/26 02:15:21;;;;;;;8.90;4.10;;;;;;;21.81;100.00;97977.11;109717;1232;1003185;-78
2023/07/26 02:17:48;;;;;;;10.30;3.70;;;;;;;21.80;100.00;97983.70;109428;1236;69573;-79
2023/07/26 02:20:15;;;;;;;9.90;3.60;;;;;;;21.78;100.00;97988.54;108997;1236;72370;-79
2023/07/26 02:22:41;;;;;;;7.70;3.60;;;;;;;21.76;100.00;97989.34;109390;1233;60542;-79
2023/07/26 02:25:08;;;;;;;10.70;3.90;;;;;;;21.71;100.00;97990.86;109391;1236;60509;-79
2023/07/26 02:27:36;;;;;;;9.30;4.10;;;;;;;21.68;100.00;97992.12;109059;1237;73721;-81
2023/07/26 02:30:03;;;;;;;10.40;3.70;;;;;;;21.64;100.00;97996.11;109729;1235;70809;-78
2023/07/26 02:32:30;;;;;;;11.50;3.80;;;;;;;21.60;100.00;97991.64;109011;1237;72418;-76
2023/07/26 02:34:57;;;;;;;8.90;3.60;;;;;;;21.58;100.00;97991.77;109263;1233;60405;-79
2023/07/26 02:37:24;;;;;;;11.30;3.50;;;;;;;21.57;100.00;97993.30;109726;1237;60427;-79
2023/07/26 02:39:50;;;;;;;8.00;3.60;;;;;;;21.54;100.00;97998.42;109424;1235;73667;-77
2023/07/26 02:42:17;;;;;;;9.20;3.90;;;;;;;21.50;100.00;97996.92;109697;1234;70713;-78
2023/07/26 02:44:45;;;;;;;13.70;3.80;;;;;;;21.49;100.00;97998.86;108973;1236;72405;-78
2023/07/26 02:47:11;;;;;;;9.00;4.20;;;;;;;21.48;100.00;98014.51;109097;1236;61036;-80
2023/07/26 02:49:38;;;;;;;5.80;3.70;;;;;;;21.45;100.00;98029.80;109258;1236;60754;-78
2023/07/26 02:52:06;;;;;;;9.30;3.60;;;;;;;21.40;100.00;98043.83;109053;1235;73609;-77
2023/07/26 02:54:32;;;;;;;11.70;3.90;;;;;;;21.37;100.00;98045.76;109006;1235;71479;-78
2023/07/26 02:56:59;;;;;;;10.00;3.50;;;;;;;21.35;100.00;98033.48;109162;1233;71834;-78
2023/07/26 02:59:26;;;;;;;10.00;3.70;;;;;;;21.34;100.00;98036.95;109684;1238;60490;-77
2023/07/26 03:01:52;;;;;;;9.90;4.00;;;;;;;21.33;100.00;98041.15;108947;1235;60464;-77
2023/07/26 03:04:19;;;;;;;8.20;3.80;;;;;;;21.32;100.00;98043.17;109591;1233;74390;-77
2023/07/26 03:06:46;;;;;;;10.10;3.70;;;;;;;21.31;100.00;98049.92;109284;1237;70042;-77
2023/07/26 03:09:12;;;;;;;6.30;3.20;;;;;;;21.29;100.00;98068.91;109259;1235;72252;-78
2023/07/26 03:11:39;;;;;;;9.30;3.90;;;;;;;21.26;100.00;98080.42;108888;1237;60548;-78
2023/07/26 03:14:06;;;;;;;7.30;3.80;;;;;;;21.24;100.00;98086.16;109408;1232;60417;-76
2023/07/26 03:16:32;;;;;;;11.00;5.00;;;;;;;21.22;100.00;98078.66;109670;1235;60810;-78
2023/07/26 03:18:59;;;;;;;11.20;3.70;;;;;;;21.21;100.00;98076.80;109735;1236;70775;-78
2023/07/26 03:21:26;;;;;;;13.20;3.90;;;;;;;21.22;100.00;98084.95;109051;1234;72344;-78
2023/07/26 03:23:53;;;;;;;8.50;4.20;;;;;;;21.22;100.00;98088.02;109120;1233;60424;-80
2023/07/26 03:26:20;;;;;;;7.80;3.60;;;;;;;21.21;100.00;98100.58;108973;1237;60404;-79
2023/07/26 03:28:47;;;;;;;8.00;3.50;;;;;;;21.20;100.00;98109.06;108893;1236;73475;-78
2023/07/26 03:31:13;;;;;;;9.20;3.70;;;;;;;21.18;100.00;98111.86;109255;1237;70969;-79
2023/07/26 03:33:40;;;;;;;7.50;3.50;;;;;;;21.17;100.00;98117.38;109667;1236;60495;-77
2023/07/26 03:36:07;;;;;;;10.50;4.20;;;;;;;21.16;100.00;98119.04;109341;1234;60468;-77
2023/07/26 03:38:34;;;;;;;7.00;4.00;;;;;;;21.15;100.00;98124.08;109899;1237;60904;-76
2023/07/26 03:41:01;;;;;;;12.70;4.00;;;;;;;21.15;100.00;98126.75;110117;1233;73504;-80
2023/07/26 03:43:28;;;;;;;10.70;3.60;;;;;;;21.16;100.00;98127.77;108994;1237;71080;-78
2023/07/26 03:45:55;;;;;;;9.30;3.80;;;;;;;21.18;100.00;98134.02;108592;1236;1002583;-79
2023/07/26 03:48:22;;;;;;;10.00;3.60;;;;;;;21.18;100.00;98131.38;109470;1234;60481;-78
2023/07/26 03:50:49;;;;;;;12.70;4.00;;;;;;;21.19;100.00;98131.29;108974;1237;60434;-78
2023/07/26 03:53:16;;;;;;;9.50;3.60;;;;;;;21.20;100.00;98138.15;109101;1237;73125;-80
2023/07/26 03:55:42;;;;;;;8.90;3.50;;;;;;;21.19;100.00;98139.25;110019;1236;60512;-79
2023/07/26 03:58:09;;;;;;;12.50;3.40;;;;;;;21.18;100.00;98137.63;109711;1233;60430;-78
2023/07/26 04:00:36;;;;;;;13.00;4.00;;;;;;;21.16;100.00;98135.11;110054;1232;60347;-76
2023/07/26 04:03:03;;;;;;;7.80;3.20;;;;;;;21.14;100.00;98136.54;109449;1233;60511;-81
2023/07/26 04:05:31;;;;;;;6.20;3.90;;;;;;;21.14;100.00;98140.27;108926;1238;73524;-79
2023/07/26 04:07:58;;;;;;;8.80;3.30;;;;;;;21.13;100.00;98147.96;109033;1237;69469;-79
2023/07/26 04:10:26;;;;;;;7.60;3.40;;;;;;;21.13;100.00;98144.52;109027;1233;71131;-79
2023/07/26 04:12:53;;;;;;;14.80;3.50;;;;;;;21.13;100.00;98141.07;109688;1235;60393;-78
2023/07/26 04:15:19;;;;;;;8.70;3.30;;;;;;;21.14;100.00;98138.77;109391;1232;60076;-79
2023/07/26 04:17:46;;;;;;;9.50;3.70;;;;;;;21.19;100.00;98135.73;109338;1235;73622;-79
2023/07/26 04:20:13;;;;;;;8.50;3.80;;;;;;;21.22;100.00;98124.20;108990;1232;70825;-79
2023/07/26 04:22:40;;;;;;;7.50;3.60;;;;;;;21.24;100.00;98122.94;108990;1234;72334;-79
2023/07/26 04:25:07;;;;;;;12.80;4.20;;;;;;;21.25;100.00;98131.33;109378;1236;60436;-78
2023/07/26 04:27:34;;;;;;;13.60;4.10;;;;;;;21.27;100.00;98143.96;109455;1234;60429;-77
2023/07/26 04:30:01;;;;;;;9.60;4.20;;;;;;;21.29;100.00;98151.10;110067;1233;60308;-78
2023/07/26 04:32:28;;;;;;;12.10;3.70;;;;;;;21.30;100.00;98146.52;109093;1236;71091;-78
2023/07/26 04:34:55;;;;;;;7.90;3.50;;;;;;;21.32;100.00;98136.48;109204;1235;72248;-77
2023/07/26 04:37:22;;;;;;;8.10;3.70;;;;;;;21.34;100.00;98129.85;109221;1237;60376;-78
2023/07/26 04:39:49;;;;;;;13.10;3.90;;;;;;;21.37;100.00;98126.89;109363;1236;60343;-78
2023/07/26 04:42:16;;;;;;;7.20;3.70;;;;;;;21.40;100.00;98119.45;109284;1235;72328;-78
2023/07/26 04:44:42;;;;;;;9.20;3.70;;;;;;;21.44;100.00;98111.05;110178;1236;71056;-78
2023/07/26 04:47:09;;;;;;;9.40;3.30;;;;;;;21.47;100.00;98119.45;109404;1232;72269;-79
2023/07/26 04:49:35;;;;;;;9.30;3.80;;;;;;;21.49;100.00;98116.73;108955;1234;60461;-78
2023/07/26 04:52:02;;;;;;;6.20;3.60;;;;;;;21.51;100.00;98112.80;109290;1237;60473;-77
2023/07/26 04:54:29;;;;;;;7.20;3.20;;;;;;;21.53;100.00;98117.27;109291;1234;72512;-80
2023/07/26 04:56:56;;;;;;;13.90;4.00;;;;;;;21.54;100.00;98126.11;108981;1236;69647;-78
2023/07/26 04:59:22;;;;;;;9.70;4.00;;;;;;;21.56;100.00;98127.84;109970;1232;60478;-78
2023/07/26 05:01:49;;;;;;;9.90;3.50;;;;;;;21.59;100.00;98132.42;108844;1236;60433;-79
2023/07/26 05:04:15;;;;;;;12.20;4.20;;;;;;;21.61;100.00;98140.90;108709;1232;60628;-78
2023/07/26 05:06:42;;;;;;;7.30;3.70;;;;;;;21.65;100.00;98137.45;108690;1232;73763;-79
2023/07/26 05:09:09;;;;;;;12.60;3.70;;;;;;;21.70;100.00;98140.92;108723;1234;71390;-79
2023/07/26 05:11:36;;;;;;;6.20;3.30;;;;;;;21.75;100.00;98162.50;108626;1236;72329;-80
2023/07/26 05:14:03;;;;;;;15.50;4.30;;;;;;;21.78;100.00;98166.14;108708;1236;61941;-80
2023/07/26 05:16:30;;;;;;;7.60;3.80;;;;;;;21.74;100.00;98165.79;108656;1236;60468;-80
2023/07/26 05:18:58;;;;;;;9.30;3.40;;;;;;;21.71;100.00;98175.23;108692;1235;73582;-80
2023/07/26 05:21:25;;;;;;;12.00;3.40;;;;;;;21.68;100.00;98182.14;108673;1236;70392;-80
2023/07/26 05:23:52;;;;;;;12.00;3.70;;;;;;;21.67;100.00;98180.08;108725;1237;72309;-79
2023/07/26 05:26:19;;;;;;;12.30;3.80;;;;;;;21.69;100.00;98187.05;108692;1235;60421;-79
2023/07/26 05:28:45;;;;;;;8.60;4.50;;;;;;;21.73;100.00;98186.65;108744;1235;60536;-78
2023/07/26 05:31:12;;;;;;;8.90;3.50;;;;;;;21.81;100.00;98192.64;108778;1237;73652;-80
2023/07/26 05:33:39;;;;;;;8.60;3.50;;;;;;;21.90;100.00;98187.80;108751;1234;70941;-80
2023/07/26 05:36:06;;;;;;;8.10;3.80;;;;;;;21.99;100.00;98189.50;108669;1236;72359;-80
2023/07/26 05:38:33;;;;;;;9.80;3.30;;;;;;;22.06;100.00;98182.02;108761;1235;60689;-78
2023/07/26 05:41:04;;;;;;;11.50;3.40;;;;;;;22.10;100.00;98194.69;108725;1237;60333;-80
2023/07/26 05:43:31;;;;;;;11.90;3.90;;;;;;;22.12;100.00;98189.98;108727;1236;73532;-79
2023/07/26 05:45:57;;;;;;;9.60;3.90;;;;;;;22.16;100.00;98194.35;108725;1234;70927;-80
2023/07/26 05:48:24;;;;;;;10.20;3.70;;;;;;;22.20;100.00;98185.55;108708;1234;72538;-80
2023/07/26 05:50:51;;;;;;;11.20;4.20;;;;;;;22.24;100.00;98180.96;108624;1235;60356;-80
2023/07/26 05:53:17;;;;;;;11.10;4.20;;;;;;;22.31;100.00;98176.46;108672;1237;60574;-78
2023/07/26 05:55:45;;;;;;;13.30;3.70;;;;;;;22.36;100.00;98184.25;108492;1238;72656;-79
2023/07/26 05:58:11;;;;;;;6.00;3.70;;;;;;;22.44;100.00;98190.96;108633;1234;71009;-79
2023/07/26 06:00:38;;;;;;;10.60;4.70;;;;;;;22.49;100.00;98194.90;108609;1235;71770;-78
2023/07/26 06:03:04;;;;;;;15.60;4.20;;;;;;;22.51;100.00;98189.69;108707;1237;60423;-80
2023/07/26 06:05:31;;;;;;;13.20;4.90;;;;;;;22.48;100.00;98191.84;108683;1232;60434;-80
2023/07/26 06:07:58;;;;;;;7.20;3.70;;;;;;;22.42;100.00;98182.27;108666;1237;73847;-79
2023/07/26 06:10:25;;;;;;;6.50;3.90;;;;;;;22.34;100.00;98156.61;108662;1234;60528;-79
2023/07/26 06:12:51;;;;;;;11.40;4.60;;;;;;;22.27;100.00;98157.50;108676;1233;72544;-80
2023/07/26 06:15:19;;;;;;;9.60;4.30;;;;;;;22.23;100.00;98170.60;108660;1234;60598;-79
2023/07/26 06:17:45;;;;;;;8.30;4.20;;;;;;;22.22;100.00;98183.39;108791;1234;60532;-79
2023/07/26 06:20:12;;;;;;;12.30;4.50;;;;;;;22.27;100.00;98183.23;108643;1236;72441;-79
2023/07/26 06:22:39;;;;;;;8.20;4.30;;;;;;;22.33;100.00;98184.48;108688;1236;70956;-79
2023/07/26 06:25:06;;;;;;;6.40;3.70;;;;;;;22.37;100.00;98188.89;108639;1236;72420;-79
2023/07/26 06:27:32;;;;;;;11.90;3.90;;;;;;;22.43;100.00;98186.90;108666;1235;61865;-78
2023/07/26 06:29:59;;;;;;;10.90;5.40;;;;;;;22.46;100.00;98180.42;108628;1234;60492;-80
2023/07/26 06:32:26;;;;;;;8.40;5.00;;;;;;;22.43;100.00;98189.98;108713;1233;72223;-79
2023/07/26 06:34:53;;;;;;;8.10;4.90;;;;;;;22.43;100.00;98201.10;108673;1236;70994;-81
2023/07/26 06:37:20;;;;;;;8.00;4.30;;;;;;;22.44;100.00;98202.20;108656;1234;70707;-79
2023/07/26 06:39:46;;;;;;;10.10;4.20;;;;;;;22.41;100.00;98213.21;108662;1232;61557;-80
2023/07/26 06:42:13;;;;;;;4.70;3.90;;;;;;;22.34;100.00;98205.05;108674;1236;59190;-79
2023/07/26 06:44:39;;;;;;;20.80;7.60;;;;;;;22.32;100.00;98211.30;108517;1238;73591;-79
2023/07/26 06:47:06;;;;;;;11.10;6.10;;;;;;;22.34;100.00;98216.51;108811;1237;69492;-79
2023/07/26 06:49:34;;;;;;;15.00;4.20;;;;;;;22.37;100.00;98217.92;108686;1234;72501;-79
2023/07/26 06:52:01;;;;;;;9.70;3.70;;;;;;;22.48;100.00;98217.93;108699;1237;61767;-79
2023/07/26 06:54:28;;;;;;;9.00;3.40;;;;;;;22.55;100.00;98214.48;108631;1232;60525;-79
2023/07/26 06:56:54;;;;;;;7.30;3.90;;;;;;;22.58;100.00;98218.83;108644;1236;73798;-79
2023/07/26 06:59:21;;;;;;;8.80;3.50;;;;;;;22.56;100.00;98208.60;108663;1236;70772;-81
2023/07/26 07:01:48;;;;;;;5.10;3.30;;;;;;;22.56;100.00;98213.83;108651;1235;72367;-80
2023/07/26 07:04:15;;;;;;;7.30;3.40;;;;;;;22.57;100.00;98209.20;108432;1235;279632;-81
2023/07/26 07:06:43;;;;;;;13.10;4.50;;;;;;;22.61;100.00;98215.92;108711;1236;60541;-80
2023/07/26 07:09:09;;;;;;;9.20;5.10;;;;;;;22.67;100.00;98222.88;108708;1236;73537;-80
2023/07/26 07:11:36;;;;;;;4.50;3.40;;;;;;;22.72;100.00;98227.72;108717;1234;70832;-80
2023/07/26 07:14:03;;;;;;;12.80;4.30;;;;;;;22.77;100.00;98244.30;108641;1237;72360;-79
2023/07/26 07:16:30;;;;;;;7.50;3.40;;;;;;;22.81;100.00;98235.52;108596;1234;61760;-79
2023/07/26 07:18:57;;;;;;;4.70;3.60;;;;;;;22.84;100.00;98236.81;108655;1233;60558;-79
2023/07/26 07:21:24;;;;;;;9.30;3.80;;;;;;;22.87;100.00;98235.20;108876;1236;72539;-81
2023/07/26 07:23:52;;;;;;;5.60;3.30;;;;;;;22.92;100.00;98235.23;109104;1232;70741;-80
2023/07/26 07:26:20;;;;;;;6.60;3.40;;;;;;;22.97;100.00;98223.79;109053;1238;72632;-78
2023/07/26 07:28:46;;;;;;;8.00;3.60;;;;;;;22.98;100.00;98229.77;108678;1233;60512;-76
2023/07/26 07:31:13;;;;;;;7.10;3.00;;;;;;;22.98;100.00;98231.15;108682;1234;60447;-78
2023/07/26 07:33:40;;;;;;;5.80;3.30;;;;;;;22.99;100.00;98231.89;108738;1237;73529;-79
2023/07/26 07:36:07;;;;;;;10.40;3.70;;;;;;;23.06;100.00;98235.75;108657;1234;71109;-80
2023/07/26 07:38:34;;;;;;;13.10;4.40;;;;;;;23.13;100.00;98243.52;108698;1234;72434;-79
2023/07/26 07:41:01;;;;;;;11.80;4.60;;;;;;;23.21;100.00;98258.50;108711;1235;61268;-80
2023/07/26 07:43:28;;;;;;;10.30;3.40;;;;;;;23.25;100.00;98244.92;108789;1235;60614;-79
2023/07/26 07:45:54;;;;;;;5.50;3.20;;;;;;;23.33;100.00;98241.62;108691;1237;73581;-79
2023/07/26 07:48:21;;;;;;;7.80;4.10;;;;;;;23.44;100.00;98235.62;108676;1234;70769;-80
2023/07/26 07:50:54;;;;;;;8.90;4.10;;;;;;;23.50;100.00;98238.74;108663;1234;70970;-77
2023/07/26 07:53:22;;;;;;;9.90;3.60;;;;;;;23.52;100.00;98233.89;108661;1232;60522;-80
2023/07/26 07:55:49;;;;;;;5.90;3.30;;;;;;;23.54;100.00;98237.94;108795;1234;60350;-78
2023/07/26 07:58:16;;;;;;;5.70;3.00;;;;;;;23.53;100.00;98233.91;108636;1234;73786;-79
2023/07/26 08:00:44;;;;;;;6.50;3.10;;;;;;;23.51;100.00;98241.77;108802;1236;71025;-80
2023/07/26 08:03:10;;;;;;;7.40;3.60;;;;;;;23.46;100.00;98243.11;108706;1235;72357;-79
2023/07/26 08:05:37;;;;;;;8.90;2.90;;;;;;;23.40;100.00;98243.23;108663;1233;60302;-79
2023/07/26 08:08:06;;;;;;;5.00;3.10;;;;;;;23.41;100.00;98255.25;108718;1236;59226;-81
2023/07/26 08:10:32;;;;;;;4.60;2.50;;;;;;;23.51;100.00;98256.50;108752;1236;72239;-78
2023/07/26 08:12:59;;;;;;;7.30;3.30;;;;;;;23.60;100.00;98250.90;108727;1236;60466;-79
2023/07/26 08:15:32;;;;;;;5.50;3.20;;;;;;;23.68;100.00;98245.56;108716;1234;60400;-79
2023/07/26 08:17:59;;;;;;;6.50;3.30;;;;;;;23.80;100.00;98235.70;108846;1234;60551;-80
2023/07/26 08:20:26;;;;;;;4.20;3.00;;;;;;;23.82;100.00;98226.17;108730;1236;60474;-79
2023/07/26 08:22:52;;;;;;;4.70;3.40;;;;;;;23.77;100.00;98227.40;108767;1237;60430;-79
2023/07/26 08:25:24;;;;;;;9.30;3.30;;;;;;;23.69;100.00;98223.06;108684;1236;69744;-78
2023/07/26 08:27:51;;;;;;;4.30;3.60;;;;;;;23.61;100.00;98232.31;108561;1234;72367;-78
2023/07/26 08:30:17;;;;;;;5.70;2.80;;;;;;;23.55;100.00;98253.19;108660;1236;61982;-80
2023/07/26 08:32:44;;;;;;;3.20;2.80;;;;;;;23.56;100.00;98261.13;108815;1238;60532;-78
2023/07/26 08:35:11;;;;;;;8.50;3.20;;;;;;;23.58;100.00;98253.41;108721;1236;73549;-79
2023/07/26 08:37:37;;;;;;;5.60;3.10;;;;;;;23.57;100.00;98256.60;108722;1235;60561;-81
2023/07/26 08:40:05;;;;;;;6.60;3.00;;;;;;;23.50;100.00;98271.30;108700;1237;72396;-78
2023/07/26 08:42:32;;;;;;;5.60;2.60;;;;;;;23.45;100.00;98272.03;108749;1236;60615;-78
2023/07/26 08:44:58;;;;;;;5.90;3.20;;;;;;;23.42;100.00;98291.09;108809;1234;60455;-79
2023/07/26 08:47:25;;;;;;;4.60;2.90;;;;;;;23.37;100.00;98308.52;108601;1237;73558;-80
2023/07/26 08:49:51;;;;;;;7.00;3.20;;;;;;;23.29;100.00;98295.16;108685;1236;69603;-77
2023/07/26 08:52:18;;;;;;;4.60;2.90;;;;;;;23.25;100.00;98301.52;108683;1237;60554;-80
2023/07/26 08:54:48;;;;;;;5.90;2.80;;;;;;;23.23;100.00;98316.80;108695;1237;60514;-80
2023/07/26 08:57:15;;;;;;;5.30;3.20;;;;;;;23.19;100.00;98338.64;108708;1235;60350;-79
2023/07/26 08:59:43;;;;;;;3.70;3.30;;;;;;;23.16;100.00;98350.97;108706;1236;72219;-79
2023/07/26 09:02:13;;;;;;;4.90;2.80;;;;;;;23.14;100.00;98375.33;108700;1237;70709;-81
2023/07/26 09:04:40;;;;;;;5.00;3.00;;;;;;;23.10;100.00;98419.92;108733;1234;72651;-80
2023/07/26 09:07:07;;;;;;;4.50;3.00;;;;;;;23.02;100.00;98437.73;108554;1239;60475;-81
2023/07/26 09:09:34;;;;;;;7.70;2.80;;;;;;;22.93;100.00;98455.61;108734;1237;60444;-81
2023/07/26 09:12:01;;;;;;;9.70;3.50;;;;;;;22.86;100.00;98460.76;108818;1235;73707;-77
2023/07/26 09:14:29;;;;;;;6.20;5.00;;;;;;;22.83;100.00;98468.66;108799;1237;70994;-79
2023/07/26 09:17:00;;;;;;;10.10;5.40;;;;;;;22.75;100.00;98483.77;108747;1236;72346;-80
2023/07/26 09:19:37;;;;;;;6.80;3.80;;;;;;;22.63;100.00;98480.33;108753;1235;61900;-81
2023/07/26 09:22:07;;;;;;;4.70;3.40;;;;;;;22.50;100.00;98463.17;108742;1238;60478;-79
2023/07/26 09:24:39;;;;;;;12.10;3.70;;;;;;;22.39;100.00;98487.30;108671;1238;73560;-78
2023/07/26 09:27:12;;;;;;;5.40;2.70;;;;;;;22.30;100.00;98500.61;108794;1234;70686;-79
2023/07/26 09:29:40;;;;;;;10.60;3.80;;;;;;;22.20;100.00;98490.64;108813;1234;71217;-79
2023/07/26 09:32:08;;;;;;;10.30;6.40;;;;;;;22.12;100.00;98484.44;108759;1236;60462;-79
2023/07/26 09:34:35;;;;;;;6.70;3.70;;;;;;;22.01;100.00;98486.57;108825;1236;60410;-81
2023/07/26 09:37:01;;;;;;;5.30;3.00;;;;;;;21.94;100.00;98404.48;108716;1233;73844;-77
2023/07/26 09:39:33;;;;;;;8.40;3.50;;;;;;;21.93;100.00;98433.65;108762;1236;70876;-78
2023/07/26 09:42:04;;;;;;;15.80;9.00;;;;;;;21.96;100.00;98485.64;108737;1234;72442;-77
2023/07/26 09:44:31;;;;;;;17.40;8.20;;;;;;;21.95;100.00;98527.88;108656;1237;60311;-78
2023/07/26 09:46:58;;;;;;;9.40;5.70;;;;;;;21.94;100.00;98536.20;108725;1237;60373;-79
2023/07/26 09:49:27;;;;;;;8.20;4.40;;;;;;;21.92;100.00;98531.73;108723;1236;72734;-79
2023/07/26 09:51:57;;;;;;;7.30;3.90;;;;;;;21.87;100.00;98538.61;108819;1237;69531;-79
2023/07/26 09:54:28;;;;;;;12.10;6.30;;;;;;;21.82;100.00;98540.21;108774;1234;72359;-81
2023/07/26 09:56:59;;;;;;;9.50;4.10;;;;;;;21.76;100.00;98537.06;108702;1232;60564;-79
2023/07/26 09:59:28;;;;;;;6.20;4.20;;;;;;;21.67;100.00;98552.54;108710;1236;60330;-78
2023/07/26 10:01:56;;;;;;;7.20;3.00;;;;;;;21.60;100.00;98557.02;108790;1236;72661;-81
2023/07/26 10:04:38;;;;;;;4.60;2.80;;;;;;;21.52;100.00;98455.83;108748;1234;70951;-79
2023/07/26 10:07:09;;;;;;;2.60;2.40;;;;;;;21.47;100.00;98268.05;108682;1236;72287;-79
2023/07/26 10:09:39;;;;;;;2.50;2.20;;;;;;;21.54;100.00;98321.16;108689;1235;61023;-79
2023/07/26 10:12:05;;;;;;;4.10;2.40;;;;;;;21.59;100.00;98378.33;108628;1238;60567;-80
2023/07/26 10:14:32;;;;;;;5.40;2.80;;;;;;;21.60;100.00;98390.34;108634;1237;73718;-81
2023/07/26 10:16:59;;;;;;;2.70;2.50;;;;;;;21.64;100.00;98393.64;108693;1236;71109;-79
2023/07/26 10:19:28;;;;;;;4.20;2.70;;;;;;;21.69;100.00;98390.30;108802;1236;72389;-79
2023/07/26 10:21:58;;;;;;;2.50;2.30;;;;;;;21.70;100.00;98392.52;109370;1236;60350;-80
2023/07/26 10:24:25;;;;;;;3.00;2.70;;;;;;;21.68;100.00;98405.59;108748;1234;60430;-79
2023/07/26 10:26:52;;;;;;;3.10;2.80;;;;;;;21.65;100.00;98406.56;108865;1236;73591;-79
2023/07/26 10:29:20;;;;;;;2.90;2.70;;;;;;;21.63;100.00;98404.99;108510;1239;70938;-81
2023/07/26 10:31:59;;;;;;;2.70;2.50;;;;;;;21.61;100.00;98385.57;108505;1239;72510;-80
2023/07/26 10:34:26;;;;;;;3.70;3.00;;;;;;;21.62;100.00;98362.23;108723;1236;61685;-79
2023/07/26 10:36:53;;;;;;;3.20;2.90;;;;;;;21.67;100.00;98361.81;108700;1234;60518;-80
2023/07/26 10:39:33;;;;;;;3.90;2.80;;;;;;;21.75;100.00;98339.77;108743;1234;73830;-78
2023/07/26 10:42:01;;;;;;;4.40;3.00;;;;;;;21.87;100.00;98355.48;108745;1237;70934;-79
2023/07/26 10:44:29;;;;;;;4.40;3.20;;;;;;;22.02;100.00;98335.11;108676;1236;72285;-80
2023/07/26 10:47:02;;;;;;;3.50;3.00;;;;;;;22.18;100.00;98348.29;108691;1235;60446;-78
2023/07/26 10:49:30;;;;;;;3.10;2.80;;;;;;;22.30;100.00;98339.27;108754;1241;60513;-80
2023/07/26 10:52:02;;;;;;;5.60;3.10;;;;;;;22.42;100.00;98341.09;108783;1236;73617;-80
2023/07/26 10:54:44;;;;;;;3.10;2.70;;;;;;;22.54;100.00;98333.37;108824;1234;70006;-79
2023/07/26 10:57:20;;;;;;;3.30;2.90;;;;;;;22.67;100.00;98314.36;108796;1238;72547;-79
2023/07/26 10:59:56;;;;;;;3.10;2.80;;;;;;;22.81;100.00;98322.08;108720;1236;60493;-80
2023/07/26 11:02:36;;;;;;;3.80;3.10;;;;;;;22.94;100.00;98324.55;108704;1236;60375;-80
2023/07/26 11:05:05;;;;;;;5.90;2.50;;;;;;;23.08;100.00;98326.94;108740;1236;73799;-81
2023/07/26 11:07:52;;;;;;;3.00;2.50;;;;;;;23.23;100.00;98318.34;108784;1236;70786;-78
2023/07/26 11:10:22;;;;;;;3.10;2.80;;;;;;;23.41;100.00;98320.17;108742;1234;72376;-79
2023/07/26 11:13:04;;;;;;;5.50;2.60;;;;;;;23.51;100.00;98314.25;108744;1234;60513;-81
2023/07/26 11:15:31;;;;;;;2.20;2.10;;;;;;;23.58;100.00;98306.95;108822;1232;60930;-79
2023/07/26 11:18:19;;;;;;;3.70;2.70;;;;;;;23.68;100.00;98316.02;108823;1237;73516;-78
2023/07/26 11:20:48;;;;;;;3.00;1.80;;;;;;;23.68;100.00;98305.32;108930;1234;70865;-80
2023/07/26 11:23:16;;;;;;;2.90;2.20;;;;;;;23.64;100.00;98303.36;108954;1233;72721;-79
2023/07/26 11:25:43;;;;;;;2.30;2.10;;;;;;;23.67;100.00;98308.51;108795;1233;60423;-79
2023/07/26 11:28:10;;;;;;;2.60;2.40;;;;;;;23.69;100.00;98312.76;109125;1233;60423;-77
2023/07/26 11:30:39;;;;;;;2.30;2.10;;;;;;;23.70;100.00;98315.33;109140;1237;73713;-80
2023/07/26 11:33:09;;;;;;;3.10;1.90;;;;;;;23.69;100.00;98315.59;108897;1236;71103;-78
2023/07/26 11:35:41;;;;;;;2.10;1.90;;;;;;;23.70;100.00;98312.30;109236;1234;72434;-79
2023/07/26 11:38:13;;;;;;;2.50;2.30;;;;;;;23.73;100.00;98316.77;109037;1234;60409;-79
2023/07/26 11:40:40;;;;;;;2.90;2.70;;;;;;;23.79;100.00;98324.05;108899;1238;60400;-79
2023/07/26 11:43:08;;;;;;;6.20;2.40;;;;;;;23.81;100.00;98330.13;108903;1236;73574;-80
2023/07/26 11:45:37;;;;;;;4.70;2.40;;;;;;;23.86;100.00;98335.64;108903;1233;69894;-78